Merricourt, North Dakota
Current Conditions -  °F | °C
As of 7:56 PM on Saturday 22 Nov 2014 (Local Time) from KJMS Reporting Station
Overcast Overcast  
Wind Chill: -2°   Ceiling: 10000
Heat Index:   Visibility: 10mi
Dew Point: -2°   Wind: 7mph
Humidity: 79%   Direction: 180°S
Pressure: 29.33"   Gusts: NA
Location:  46.2592°N, 98.7407°W
Report Text: KJMS 230156Z AUTO 18006KT 10SM OVC100 01/M02 A2933 RMK AO2 SLP950 T00111022
Loading
Personal Weather Stations






























Interactive Weather Map New forecast layout! Learn more

10-Day Weather Forecast

Advertisements
Track Severe Weather on mobile